sensor_id;sensor_type;location;lat;lon;timestamp;temperature;humidity
29341;DHT22;16337;59.536;13.468;2024-01-30T00:00:18;1.90;99.90
29341;DHT22;16337;59.536;13.468;2024-01-30T00:02:44;1.90;99.90
29341;DHT22;16337;59.536;13.468;2024-01-30T00:05:11;1.90;99.90
29341;DHT22;16337;59.536;13.468;2024-01-30T00:07:36;1.90;99.90
29341;DHT22;16337;59.536;13.468;2024-01-30T00:10:03;1.80;99.90
29341;DHT22;16337;59.536;13.468;2024-01-30T00:12:31;1.80;99.90
29341;DHT22;16337;59.536;13.468;2024-01-30T00:18:19;1.80;99.90
29341;DHT22;16337;59.536;13.468;2024-01-30T00:20:47;1.80;99.90
29341;DHT22;16337;59.536;13.468;2024-01-30T00:23:16;1.80;99.90
29341;DHT22;16337;59.536;13.468;2024-01-30T00:25:41;1.80;99.90
29341;DHT22;16337;59.536;13.468;2024-01-30T00:28:09;1.80;99.90
29341;DHT22;16337;59.536;13.468;2024-01-30T00:30:37;1.80;99.90
29341;DHT22;16337;59.536;13.468;2024-01-30T00:33:06;1.80;99.90
29341;DHT22;16337;59.536;13.468;2024-01-30T00:35:58;1.80;99.90
29341;DHT22;16337;59.536;13.468;2024-01-30T00:38:46;1.80;99.90
29341;DHT22;16337;59.536;13.468;2024-01-30T00:41:11;1.70;99.90
29341;DHT22;16337;59.536;13.468;2024-01-30T00:43:37;1.70;99.90
29341;DHT22;16337;59.536;13.468;2024-01-30T00:46:03;1.70;99.90
29341;DHT22;16337;59.536;13.468;2024-01-30T00:48:28;1.70;99.90
29341;DHT22;16337;59.536;13.468;2024-01-30T00:50:54;1.70;99.90
29341;DHT22;16337;59.536;13.468;2024-01-30T00:53:20;1.60;99.90
29341;DHT22;16337;59.536;13.468;2024-01-30T00:55:46;1.60;99.90
29341;DHT22;16337;59.536;13.468;2024-01-30T00:58:11;1.60;99.90
29341;DHT22;16337;59.536;13.468;2024-01-30T01:00:37;1.50;99.90
29341;DHT22;16337;59.536;13.468;2024-01-30T01:03:03;1.50;99.90
29341;DHT22;16337;59.536;13.468;2024-01-30T01:05:28;1.50;99.90
29341;DHT22;16337;59.536;13.468;2024-01-30T01:07:55;1.50;99.90
29341;DHT22;16337;59.536;13.468;2024-01-30T01:10:20;1.50;99.90
29341;DHT22;16337;59.536;13.468;2024-01-30T01:12:46;1.40;99.90
29341;DHT22;16337;59.536;13.468;2024-01-30T01:15:12;1.40;99.90
29341;DHT22;16337;59.536;13.468;2024-01-30T01:17:38;1.30;99.90
29341;DHT22;16337;59.536;13.468;2024-01-30T01:20:05;1.30;99.90
29341;DHT22;16337;59.536;13.468;2024-01-30T01:22:31;1.40;99.90
29341;DHT22;16337;59.536;13.468;2024-01-30T01:24:58;1.40;99.90
29341;DHT22;16337;59.536;13.468;2024-01-30T01:27:24;1.40;99.90
29341;DHT22;16337;59.536;13.468;2024-01-30T01:29:50;1.40;99.90
29341;DHT22;16337;59.536;13.468;2024-01-30T01:32:16;1.40;99.90
29341;DHT22;16337;59.536;13.468;2024-01-30T01:34:42;1.50;99.90
29341;DHT22;16337;59.536;13.468;2024-01-30T01:37:07;1.50;99.90
29341;DHT22;16337;59.536;13.468;2024-01-30T01:39:33;1.50;99.90
29341;DHT22;16337;59.536;13.468;2024-01-30T01:41:59;1.50;99.90
29341;DHT22;16337;59.536;13.468;2024-01-30T01:44:25;1.40;99.90
29341;DHT22;16337;59.536;13.468;2024-01-30T01:46:51;1.40;99.90
29341;DHT22;16337;59.536;13.468;2024-01-30T01:49:17;1.50;99.90
29341;DHT22;16337;59.536;13.468;2024-01-30T01:51:45;1.40;99.90
29341;DHT22;16337;59.536;13.468;2024-01-30T01:54:12;1.40;99.90
29341;DHT22;16337;59.536;13.468;2024-01-30T01:56:38;1.50;99.90
29341;DHT22;16337;59.536;13.468;2024-01-30T01:59:06;1.50;99.90
29341;DHT22;16337;59.536;13.468;2024-01-30T02:01:37;1.40;99.90
29341;DHT22;16337;59.536;13.468;2024-01-30T02:04:03;1.40;99.90
29341;DHT22;16337;59.536;13.468;2024-01-30T02:06:29;1.40;99.90
29341;DHT22;16337;59.536;13.468;2024-01-30T02:08:55;1.40;99.90
29341;DHT22;16337;59.536;13.468;2024-01-30T02:11:22;1.40;99.90
29341;DHT22;16337;59.536;13.468;2024-01-30T02:13:48;1.40;99.90
29341;DHT22;16337;59.536;13.468;2024-01-30T02:16:14;1.40;99.90
29341;DHT22;16337;59.536;13.468;2024-01-30T02:18:40;1.50;99.90
29341;DHT22;16337;59.536;13.468;2024-01-30T02:21:11;1.50;99.90
29341;DHT22;16337;59.536;13.468;2024-01-30T02:23:36;1.50;99.90
29341;DHT22;16337;59.536;13.468;2024-01-30T02:26:03;1.50;99.90
29341;DHT22;16337;59.536;13.468;2024-01-30T02:28:29;1.50;99.90
29341;DHT22;16337;59.536;13.468;2024-01-30T02:30:54;1.50;99.90
29341;DHT22;16337;59.536;13.468;2024-01-30T02:33:20;1.40;99.90
29341;DHT22;16337;59.536;13.468;2024-01-30T02:35:47;1.40;99.90
29341;DHT22;16337;59.536;13.468;2024-01-30T02:38:13;1.40;99.90
29341;DHT22;16337;59.536;13.468;2024-01-30T02:40:39;1.40;99.90
29341;DHT22;16337;59.536;13.468;2024-01-30T02:43:05;1.40;99.90
29341;DHT22;16337;59.536;13.468;2024-01-30T02:45:30;1.40;99.90
29341;DHT22;16337;59.536;13.468;2024-01-30T02:47:56;1.30;99.90
29341;DHT22;16337;59.536;13.468;2024-01-30T02:50:21;1.30;99.90
29341;DHT22;16337;59.536;13.468;2024-01-30T02:52:48;1.20;99.90
29341;DHT22;16337;59.536;13.468;2024-01-30T02:55:13;1.20;99.90
29341;DHT22;16337;59.536;13.468;2024-01-30T02:57:39;1.20;99.90
29341;DHT22;16337;59.536;13.468;2024-01-30T03:00:05;1.20;99.90
29341;DHT22;16337;59.536;13.468;2024-01-30T03:02:32;1.20;99.90
29341;DHT22;16337;59.536;13.468;2024-01-30T03:04:59;1.20;99.90
29341;DHT22;16337;59.536;13.468;2024-01-30T03:07:25;1.20;99.90
29341;DHT22;16337;59.536;13.468;2024-01-30T03:09:51;1.20;99.90
29341;DHT22;16337;59.536;13.468;2024-01-30T03:12:16;1.20;99.90
29341;DHT22;16337;59.536;13.468;2024-01-30T03:14:42;1.20;99.90
29341;DHT22;16337;59.536;13.468;2024-01-30T03:17:08;1.20;99.90
29341;DHT22;16337;59.536;13.468;2024-01-30T03:19:33;1.20;99.90
29341;DHT22;16337;59.536;13.468;2024-01-30T03:21:59;1.20;99.90
29341;DHT22;16337;59.536;13.468;2024-01-30T03:24:25;1.20;99.90
29341;DHT22;16337;59.536;13.468;2024-01-30T03:26:51;1.20;99.90
29341;DHT22;16337;59.536;13.468;2024-01-30T03:29:16;1.20;99.90
29341;DHT22;16337;59.536;13.468;2024-01-30T03:31:42;1.20;99.90
29341;DHT22;16337;59.536;13.468;2024-01-30T03:34:08;1.20;99.90
29341;DHT22;16337;59.536;13.468;2024-01-30T03:36:33;1.10;99.90
29341;DHT22;16337;59.536;13.468;2024-01-30T03:39:00;1.10;99.90
29341;DHT22;16337;59.536;13.468;2024-01-30T03:41:26;1.20;99.90
29341;DHT22;16337;59.536;13.468;2024-01-30T03:43:52;1.20;99.90
29341;DHT22;16337;59.536;13.468;2024-01-30T03:46:17;1.20;99.90
29341;DHT22;16337;59.536;13.468;2024-01-30T03:48:44;1.10;99.90
29341;DHT22;16337;59.536;13.468;2024-01-30T03:51:10;1.20;99.90
29341;DHT22;16337;59.536;13.468;2024-01-30T03:53:43;1.20;99.90
29341;DHT22;16337;59.536;13.468;2024-01-30T03:56:09;1.20;99.90
29341;DHT22;16337;59.536;13.468;2024-01-30T03:58:35;1.20;99.90
29341;DHT22;16337;59.536;13.468;2024-01-30T04:01:01;1.20;99.90
29341;DHT22;16337;59.536;13.468;2024-01-30T04:03:26;1.20;99.90
29341;DHT22;16337;59.536;13.468;2024-01-30T04:05:52;1.20;99.90
29341;DHT22;16337;59.536;13.468;2024-01-30T04:08:18;1.20;99.90
29341;DHT22;16337;59.536;13.468;2024-01-30T04:10:44;1.20;99.90
29341;DHT22;16337;59.536;13.468;2024-01-30T04:13:10;1.20;99.90
29341;DHT22;16337;59.536;13.468;2024-01-30T04:15:36;1.20;99.90
29341;DHT22;16337;59.536;13.468;2024-01-30T04:18:01;1.20;99.90
29341;DHT22;16337;59.536;13.468;2024-01-30T04:20:27;1.20;99.90
29341;DHT22;16337;59.536;13.468;2024-01-30T04:22:53;1.20;99.90
29341;DHT22;16337;59.536;13.468;2024-01-30T04:25:19;1.20;99.90
29341;DHT22;16337;59.536;13.468;2024-01-30T04:27:44;1.20;99.90
29341;DHT22;16337;59.536;13.468;2024-01-30T04:30:13;1.30;99.90
29341;DHT22;16337;59.536;13.468;2024-01-30T04:32:39;1.30;99.90
29341;DHT22;16337;59.536;13.468;2024-01-30T04:35:04;1.30;99.90
29341;DHT22;16337;59.536;13.468;2024-01-30T04:37:30;1.30;99.90
29341;DHT22;16337;59.536;13.468;2024-01-30T04:39:56;1.30;99.90
29341;DHT22;16337;59.536;13.468;2024-01-30T04:42:22;1.30;99.90
29341;DHT22;16337;59.536;13.468;2024-01-30T04:44:48;1.30;99.90
29341;DHT22;16337;59.536;13.468;2024-01-30T04:47:13;1.30;99.90
29341;DHT22;16337;59.536;13.468;2024-01-30T04:49:39;1.20;99.90
29341;DHT22;16337;59.536;13.468;2024-01-30T04:52:06;1.20;99.90
29341;DHT22;16337;59.536;13.468;2024-01-30T04:54:32;1.20;99.90
29341;DHT22;16337;59.536;13.468;2024-01-30T04:56:58;1.20;99.90
29341;DHT22;16337;59.536;13.468;2024-01-30T04:59:24;1.20;99.90
29341;DHT22;16337;59.536;13.468;2024-01-30T05:01:49;1.20;99.90
29341;DHT22;16337;59.536;13.468;2024-01-30T05:04:15;1.20;99.90
29341;DHT22;16337;59.536;13.468;2024-01-30T05:06:41;1.20;99.90
29341;DHT22;16337;59.536;13.468;2024-01-30T05:09:07;1.20;99.90
29341;DHT22;16337;59.536;13.468;2024-01-30T05:11:38;1.20;99.90
29341;DHT22;16337;59.536;13.468;2024-01-30T05:14:04;1.20;99.90
29341;DHT22;16337;59.536;13.468;2024-01-30T05:16:31;1.20;99.90
29341;DHT22;16337;59.536;13.468;2024-01-30T05:18:57;1.20;99.90
29341;DHT22;16337;59.536;13.468;2024-01-30T05:21:23;1.20;99.90
29341;DHT22;16337;59.536;13.468;2024-01-30T05:23:48;1.20;99.90
29341;DHT22;16337;59.536;13.468;2024-01-30T05:26:14;1.30;99.90
29341;DHT22;16337;59.536;13.468;2024-01-30T05:28:39;1.30;99.90
29341;DHT22;16337;59.536;13.468;2024-01-30T05:31:05;1.30;99.90
29341;DHT22;16337;59.536;13.468;2024-01-30T05:33:31;1.30;99.90
29341;DHT22;16337;59.536;13.468;2024-01-30T05:35:56;1.30;99.90
29341;DHT22;16337;59.536;13.468;2024-01-30T05:38:22;1.30;99.90
29341;DHT22;16337;59.536;13.468;2024-01-30T05:40:48;1.30;99.90
29341;DHT22;16337;59.536;13.468;2024-01-30T05:43:13;1.30;99.90
29341;DHT22;16337;59.536;13.468;2024-01-30T05:45:39;1.20;99.90
29341;DHT22;16337;59.536;13.468;2024-01-30T05:48:05;1.30;99.90
29341;DHT22;16337;59.536;13.468;2024-01-30T05:50:30;1.30;99.90
29341;DHT22;16337;59.536;13.468;2024-01-30T05:52:56;1.30;99.90
29341;DHT22;16337;59.536;13.468;2024-01-30T05:55:22;1.30;99.90
29341;DHT22;16337;59.536;13.468;2024-01-30T05:57:48;1.30;99.90
29341;DHT22;16337;59.536;13.468;2024-01-30T06:00:14;1.30;99.90
29341;DHT22;16337;59.536;13.468;2024-01-30T06:02:39;1.30;99.90
29341;DHT22;16337;59.536;13.468;2024-01-30T06:05:05;1.20;99.90
29341;DHT22;16337;59.536;13.468;2024-01-30T06:07:31;1.30;99.90
29341;DHT22;16337;59.536;13.468;2024-01-30T06:09:57;1.20;99.90
29341;DHT22;16337;59.536;13.468;2024-01-30T06:12:23;1.20;99.90
29341;DHT22;16337;59.536;13.468;2024-01-30T06:14:48;1.20;99.90
29341;DHT22;16337;59.536;13.468;2024-01-30T06:17:14;1.20;99.90
29341;DHT22;16337;59.536;13.468;2024-01-30T06:19:40;1.20;99.90
29341;DHT22;16337;59.536;13.468;2024-01-30T06:22:05;1.20;99.90
29341;DHT22;16337;59.536;13.468;2024-01-30T06:24:31;1.20;99.90
29341;DHT22;16337;59.536;13.468;2024-01-30T06:26:57;1.20;99.90
29341;DHT22;16337;59.536;13.468;2024-01-30T06:29:22;1.20;99.90
29341;DHT22;16337;59.536;13.468;2024-01-30T06:31:50;1.20;99.90
29341;DHT22;16337;59.536;13.468;2024-01-30T06:34:16;1.20;99.90
29341;DHT22;16337;59.536;13.468;2024-01-30T06:36:42;1.20;99.90
29341;DHT22;16337;59.536;13.468;2024-01-30T06:39:07;1.20;99.90
29341;DHT22;16337;59.536;13.468;2024-01-30T06:41:33;1.20;99.90
29341;DHT22;16337;59.536;13.468;2024-01-30T06:43:59;1.20;99.90
29341;DHT22;16337;59.536;13.468;2024-01-30T06:46:25;1.20;99.90
29341;DHT22;16337;59.536;13.468;2024-01-30T06:48:50;1.20;99.90
29341;DHT22;16337;59.536;13.468;2024-01-30T06:51:16;1.20;99.90
29341;DHT22;16337;59.536;13.468;2024-01-30T06:53:42;1.20;99.90
29341;DHT22;16337;59.536;13.468;2024-01-30T06:56:07;1.20;99.90
29341;DHT22;16337;59.536;13.468;2024-01-30T06:58:33;1.20;99.90
29341;DHT22;16337;59.536;13.468;2024-01-30T07:00:59;1.20;99.90
29341;DHT22;16337;59.536;13.468;2024-01-30T07:03:24;1.20;99.90
29341;DHT22;16337;59.536;13.468;2024-01-30T07:05:50;1.10;99.90
29341;DHT22;16337;59.536;13.468;2024-01-30T07:08:17;1.20;99.90
29341;DHT22;16337;59.536;13.468;2024-01-30T07:10:43;1.20;99.90
29341;DHT22;16337;59.536;13.468;2024-01-30T07:13:10;1.10;99.90
29341;DHT22;16337;59.536;13.468;2024-01-30T07:15:36;1.20;99.90
29341;DHT22;16337;59.536;13.468;2024-01-30T07:18:02;1.20;99.90
29341;DHT22;16337;59.536;13.468;2024-01-30T07:20:28;1.20;99.90
29341;DHT22;16337;59.536;13.468;2024-01-30T07:22:56;1.20;99.90
29341;DHT22;16337;59.536;13.468;2024-01-30T07:25:21;1.20;99.90
29341;DHT22;16337;59.536;13.468;2024-01-30T07:27:52;1.20;99.90
29341;DHT22;16337;59.536;13.468;2024-01-30T07:30:18;1.20;99.90
29341;DHT22;16337;59.536;13.468;2024-01-30T07:32:44;1.30;99.90
29341;DHT22;16337;59.536;13.468;2024-01-30T07:35:09;1.30;99.90
29341;DHT22;16337;59.536;13.468;2024-01-30T07:37:36;1.30;99.90
29341;DHT22;16337;59.536;13.468;2024-01-30T07:40:03;1.30;99.90
29341;DHT22;16337;59.536;13.468;2024-01-30T07:42:28;1.30;99.90
29341;DHT22;16337;59.536;13.468;2024-01-30T07:44:54;1.30;99.90
29341;DHT22;16337;59.536;13.468;2024-01-30T07:47:20;1.30;99.90
29341;DHT22;16337;59.536;13.468;2024-01-30T07:49:45;1.30;99.90
29341;DHT22;16337;59.536;13.468;2024-01-30T07:52:11;1.30;99.90
29341;DHT22;16337;59.536;13.468;2024-01-30T07:54:39;1.30;99.90
29341;DHT22;16337;59.536;13.468;2024-01-30T07:57:05;1.30;99.90
29341;DHT22;16337;59.536;13.468;2024-01-30T07:59:31;1.30;99.90
29341;DHT22;16337;59.536;13.468;2024-01-30T08:01:56;1.40;99.90
29341;DHT22;16337;59.536;13.468;2024-01-30T08:04:22;1.40;99.90
29341;DHT22;16337;59.536;13.468;2024-01-30T08:06:48;1.40;99.90
29341;DHT22;16337;59.536;13.468;2024-01-30T08:09:14;1.40;99.90
29341;DHT22;16337;59.536;13.468;2024-01-30T08:11:40;1.40;99.90
29341;DHT22;16337;59.536;13.468;2024-01-30T08:14:05;1.50;99.90
29341;DHT22;16337;59.536;13.468;2024-01-30T08:16:31;1.50;99.90
29341;DHT22;16337;59.536;13.468;2024-01-30T08:18:57;1.50;99.90
29341;DHT22;16337;59.536;13.468;2024-01-30T08:21:23;1.50;99.90
29341;DHT22;16337;59.536;13.468;2024-01-30T08:23:48;1.50;99.90
29341;DHT22;16337;59.536;13.468;2024-01-30T08:26:14;1.60;99.90
29341;DHT22;16337;59.536;13.468;2024-01-30T08:28:40;1.60;99.90
29341;DHT22;16337;59.536;13.468;2024-01-30T08:31:05;1.70;99.90
29341;DHT22;16337;59.536;13.468;2024-01-30T08:33:31;1.70;99.90
29341;DHT22;16337;59.536;13.468;2024-01-30T08:35:57;1.70;99.90
29341;DHT22;16337;59.536;13.468;2024-01-30T08:38:23;1.70;99.90
29341;DHT22;16337;59.536;13.468;2024-01-30T08:40:49;1.70;99.90
29341;DHT22;16337;59.536;13.468;2024-01-30T08:43:14;1.70;99.90
29341;DHT22;16337;59.536;13.468;2024-01-30T08:45:41;1.80;99.90
29341;DHT22;16337;59.536;13.468;2024-01-30T08:48:07;1.80;99.90
29341;DHT22;16337;59.536;13.468;2024-01-30T08:50:33;1.90;99.90
29341;DHT22;16337;59.536;13.468;2024-01-30T08:53:00;1.90;99.90
29341;DHT22;16337;59.536;13.468;2024-01-30T08:55:25;1.90;99.90
29341;DHT22;16337;59.536;13.468;2024-01-30T08:57:51;1.90;99.90
29341;DHT22;16337;59.536;13.468;2024-01-30T09:00:17;2.00;99.90
29341;DHT22;16337;59.536;13.468;2024-01-30T09:02:43;2.00;99.90
29341;DHT22;16337;59.536;13.468;2024-01-30T09:05:09;2.00;99.90
29341;DHT22;16337;59.536;13.468;2024-01-30T09:07:34;2.10;99.90
29341;DHT22;16337;59.536;13.468;2024-01-30T09:10:00;2.10;99.90
29341;DHT22;16337;59.536;13.468;2024-01-30T09:12:26;2.00;99.90
29341;DHT22;16337;59.536;13.468;2024-01-30T09:14:52;2.00;99.90
29341;DHT22;16337;59.536;13.468;2024-01-30T09:17:18;2.00;99.90
29341;DHT22;16337;59.536;13.468;2024-01-30T09:19:46;1.90;99.90
29341;DHT22;16337;59.536;13.468;2024-01-30T09:22:11;1.90;99.90
29341;DHT22;16337;59.536;13.468;2024-01-30T09:24:37;2.00;99.90
29341;DHT22;16337;59.536;13.468;2024-01-30T09:27:03;2.10;99.90
29341;DHT22;16337;59.536;13.468;2024-01-30T09:29:28;2.10;99.90
29341;DHT22;16337;59.536;13.468;2024-01-30T09:31:54;2.10;99.90
29341;DHT22;16337;59.536;13.468;2024-01-30T09:34:20;2.20;99.90
29341;DHT22;16337;59.536;13.468;2024-01-30T09:36:45;2.20;99.90
29341;DHT22;16337;59.536;13.468;2024-01-30T09:39:11;2.20;99.90
29341;DHT22;16337;59.536;13.468;2024-01-30T09:41:47;2.20;99.90
29341;DHT22;16337;59.536;13.468;2024-01-30T09:44:16;2.30;99.90
29341;DHT22;16337;59.536;13.468;2024-01-30T09:46:42;2.20;99.90
29341;DHT22;16337;59.536;13.468;2024-01-30T09:49:09;2.20;99.90
29341;DHT22;16337;59.536;13.468;2024-01-30T09:51:35;2.20;99.90
29341;DHT22;16337;59.536;13.468;2024-01-30T09:54:02;2.20;99.90
29341;DHT22;16337;59.536;13.468;2024-01-30T09:56:28;2.20;99.90
29341;DHT22;16337;59.536;13.468;2024-01-30T09:58:54;2.20;99.90
29341;DHT22;16337;59.536;13.468;2024-01-30T10:01:20;2.20;99.90
29341;DHT22;16337;59.536;13.468;2024-01-30T10:03:46;2.20;99.90
29341;DHT22;16337;59.536;13.468;2024-01-30T10:06:11;2.20;99.90
29341;DHT22;16337;59.536;13.468;2024-01-30T10:08:37;2.20;99.90
29341;DHT22;16337;59.536;13.468;2024-01-30T10:11:03;2.20;99.90
29341;DHT22;16337;59.536;13.468;2024-01-30T10:13:29;2.10;99.90
29341;DHT22;16337;59.536;13.468;2024-01-30T10:15:55;2.10;99.90
29341;DHT22;16337;59.536;13.468;2024-01-30T10:18:24;2.10;99.90
29341;DHT22;16337;59.536;13.468;2024-01-30T10:20:51;2.10;99.90
29341;DHT22;16337;59.536;13.468;2024-01-30T10:23:17;2.10;99.90
29341;DHT22;16337;59.536;13.468;2024-01-30T10:25:44;2.10;99.90
29341;DHT22;16337;59.536;13.468;2024-01-30T10:28:10;2.10;99.90
29341;DHT22;16337;59.536;13.468;2024-01-30T10:30:36;2.20;99.90
29341;DHT22;16337;59.536;13.468;2024-01-30T10:33:05;2.20;99.90
29341;DHT22;16337;59.536;13.468;2024-01-30T10:35:31;2.20;99.90
29341;DHT22;16337;59.536;13.468;2024-01-30T10:37:58;2.20;99.90
29341;DHT22;16337;59.536;13.468;2024-01-30T10:40:28;2.20;99.90
29341;DHT22;16337;59.536;13.468;2024-01-30T10:42:55;2.20;99.90
29341;DHT22;16337;59.536;13.468;2024-01-30T10:45:22;2.20;99.90
29341;DHT22;16337;59.536;13.468;2024-01-30T10:47:54;2.20;99.90
29341;DHT22;16337;59.536;13.468;2024-01-30T10:50:23;2.30;99.90
29341;DHT22;16337;59.536;13.468;2024-01-30T10:52:50;2.30;99.90
29341;DHT22;16337;59.536;13.468;2024-01-30T10:55:16;2.30;99.90
29341;DHT22;16337;59.536;13.468;2024-01-30T10:57:43;2.40;99.90
29341;DHT22;16337;59.536;13.468;2024-01-30T11:00:11;2.40;99.90
29341;DHT22;16337;59.536;13.468;2024-01-30T11:02:43;2.40;99.90
29341;DHT22;16337;59.536;13.468;2024-01-30T11:05:09;2.40;99.90
29341;DHT22;16337;59.536;13.468;2024-01-30T11:07:35;2.40;99.90
29341;DHT22;16337;59.536;13.468;2024-01-30T11:10:04;2.30;99.90
29341;DHT22;16337;59.536;13.468;2024-01-30T11:12:33;2.40;99.90
29341;DHT22;16337;59.536;13.468;2024-01-30T11:15:10;2.40;99.90
29341;DHT22;16337;59.536;13.468;2024-01-30T11:20:27;2.40;99.90
29341;DHT22;16337;59.536;13.468;2024-01-30T11:22:54;2.40;99.90
29341;DHT22;16337;59.536;13.468;2024-01-30T11:25:21;2.40;99.90
29341;DHT22;16337;59.536;13.468;2024-01-30T11:27:49;2.40;99.90
29341;DHT22;16337;59.536;13.468;2024-01-30T11:35:33;2.40;99.90
29341;DHT22;16337;59.536;13.468;2024-01-30T11:37:59;2.40;99.90
29341;DHT22;16337;59.536;13.468;2024-01-30T11:40:29;2.40;99.90
29341;DHT22;16337;59.536;13.468;2024-01-30T11:42:57;2.40;99.90
29341;DHT22;16337;59.536;13.468;2024-01-30T11:45:23;2.40;99.90
29341;DHT22;16337;59.536;13.468;2024-01-30T11:47:49;2.40;99.90
29341;DHT22;16337;59.536;13.468;2024-01-30T11:50:15;2.40;99.90
29341;DHT22;16337;59.536;13.468;2024-01-30T11:52:41;2.30;99.90
29341;DHT22;16337;59.536;13.468;2024-01-30T11:55:09;2.30;99.90
29341;DHT22;16337;59.536;13.468;2024-01-30T11:57:34;2.20;99.90
29341;DHT22;16337;59.536;13.468;2024-01-30T12:00:04;2.30;99.90
29341;DHT22;16337;59.536;13.468;2024-01-30T12:02:41;2.20;99.90
29341;DHT22;16337;59.536;13.468;2024-01-30T12:05:07;2.20;99.90
29341;DHT22;16337;59.536;13.468;2024-01-30T12:07:33;2.20;99.90
29341;DHT22;16337;59.536;13.468;2024-01-30T12:09:59;2.30;99.90
29341;DHT22;16337;59.536;13.468;2024-01-30T12:12:29;2.30;99.90
29341;DHT22;16337;59.536;13.468;2024-01-30T12:14:55;2.30;99.90
29341;DHT22;16337;59.536;13.468;2024-01-30T12:17:32;2.40;99.90
29341;DHT22;16337;59.536;13.468;2024-01-30T12:20:12;2.30;99.90
29341;DHT22;16337;59.536;13.468;2024-01-30T12:22:42;2.30;99.90
29341;DHT22;16337;59.536;13.468;2024-01-30T12:25:13;2.30;99.90
29341;DHT22;16337;59.536;13.468;2024-01-30T12:27:41;2.30;99.90
29341;DHT22;16337;59.536;13.468;2024-01-30T12:30:09;2.20;99.90
29341;DHT22;16337;59.536;13.468;2024-01-30T12:32:45;2.20;99.90
29341;DHT22;16337;59.536;13.468;2024-01-30T12:35:16;2.20;99.90
29341;DHT22;16337;59.536;13.468;2024-01-30T12:37:46;2.10;99.90
29341;DHT22;16337;59.536;13.468;2024-01-30T12:40:14;2.20;99.90
29341;DHT22;16337;59.536;13.468;2024-01-30T12:42:46;2.20;99.90
29341;DHT22;16337;59.536;13.468;2024-01-30T12:45:14;2.20;99.90
29341;DHT22;16337;59.536;13.468;2024-01-30T12:47:41;2.20;99.90
29341;DHT22;16337;59.536;13.468;2024-01-30T12:50:07;2.20;99.90
29341;DHT22;16337;59.536;13.468;2024-01-30T12:52:33;2.20;99.90
29341;DHT22;16337;59.536;13.468;2024-01-30T12:55:00;2.20;99.90
29341;DHT22;16337;59.536;13.468;2024-01-30T12:57:26;2.20;99.90
29341;DHT22;16337;59.536;13.468;2024-01-30T12:59:51;2.20;99.90
29341;DHT22;16337;59.536;13.468;2024-01-30T13:02:17;2.20;99.90
29341;DHT22;16337;59.536;13.468;2024-01-30T13:04:44;2.20;99.90
29341;DHT22;16337;59.536;13.468;2024-01-30T13:07:09;2.20;99.90
29341;DHT22;16337;59.536;13.468;2024-01-30T13:09:35;2.20;99.90
29341;DHT22;16337;59.536;13.468;2024-01-30T13:12:01;2.10;99.90
29341;DHT22;16337;59.536;13.468;2024-01-30T13:14:27;2.10;99.90
29341;DHT22;16337;59.536;13.468;2024-01-30T13:16:53;2.20;99.90
29341;DHT22;16337;59.536;13.468;2024-01-30T13:19:18;2.10;99.90
29341;DHT22;16337;59.536;13.468;2024-01-30T13:21:44;2.20;99.90
29341;DHT22;16337;59.536;13.468;2024-01-30T13:24:10;2.20;99.90
29341;DHT22;16337;59.536;13.468;2024-01-30T13:26:36;2.20;99.90
29341;DHT22;16337;59.536;13.468;2024-01-30T13:29:02;2.20;99.90
29341;DHT22;16337;59.536;13.468;2024-01-30T13:31:29;2.20;99.90
29341;DHT22;16337;59.536;13.468;2024-01-30T13:33:56;2.20;99.90
29341;DHT22;16337;59.536;13.468;2024-01-30T13:36:22;2.20;99.90
29341;DHT22;16337;59.536;13.468;2024-01-30T13:38:48;2.20;99.90
29341;DHT22;16337;59.536;13.468;2024-01-30T13:41:14;2.10;99.90
29341;DHT22;16337;59.536;13.468;2024-01-30T13:43:39;2.20;99.90
29341;DHT22;16337;59.536;13.468;2024-01-30T13:46:05;2.10;99.90
29341;DHT22;16337;59.536;13.468;2024-01-30T13:48:31;2.10;99.90
29341;DHT22;16337;59.536;13.468;2024-01-30T13:50:57;2.20;99.90
29341;DHT22;16337;59.536;13.468;2024-01-30T13:53:23;2.20;99.90
29341;DHT22;16337;59.536;13.468;2024-01-30T13:55:48;2.20;99.90
29341;DHT22;16337;59.536;13.468;2024-01-30T13:58:14;2.20;99.90
29341;DHT22;16337;59.536;13.468;2024-01-30T14:00:40;2.20;99.90
29341;DHT22;16337;59.536;13.468;2024-01-30T14:03:05;2.20;99.90
29341;DHT22;16337;59.536;13.468;2024-01-30T14:05:31;2.20;99.90
29341;DHT22;16337;59.536;13.468;2024-01-30T14:07:58;2.20;99.90
29341;DHT22;16337;59.536;13.468;2024-01-30T14:10:25;2.10;99.90
29341;DHT22;16337;59.536;13.468;2024-01-30T14:12:51;2.20;99.90
29341;DHT22;16337;59.536;13.468;2024-01-30T14:15:17;2.20;99.90
29341;DHT22;16337;59.536;13.468;2024-01-30T14:17:46;2.20;99.90
29341;DHT22;16337;59.536;13.468;2024-01-30T14:20:14;2.20;99.90
29341;DHT22;16337;59.536;13.468;2024-01-30T14:22:40;2.20;99.90
29341;DHT22;16337;59.536;13.468;2024-01-30T14:25:06;2.20;99.90
29341;DHT22;16337;59.536;13.468;2024-01-30T14:27:32;2.20;99.90
29341;DHT22;16337;59.536;13.468;2024-01-30T14:29:58;2.20;99.90
29341;DHT22;16337;59.536;13.468;2024-01-30T14:32:24;2.20;99.90
29341;DHT22;16337;59.536;13.468;2024-01-30T14:34:53;2.20;99.90
29341;DHT22;16337;59.536;13.468;2024-01-30T14:37:20;2.20;99.90
29341;DHT22;16337;59.536;13.468;2024-01-30T14:39:46;2.20;99.90
29341;DHT22;16337;59.536;13.468;2024-01-30T14:42:13;2.20;99.90
29341;DHT22;16337;59.536;13.468;2024-01-30T14:44:39;2.10;99.90
29341;DHT22;16337;59.536;13.468;2024-01-30T14:47:05;2.20;99.90
29341;DHT22;16337;59.536;13.468;2024-01-30T14:49:31;2.10;99.90
29341;DHT22;16337;59.536;13.468;2024-01-30T14:51:57;2.20;99.90
29341;DHT22;16337;59.536;13.468;2024-01-30T14:54:24;2.20;99.90
29341;DHT22;16337;59.536;13.468;2024-01-30T14:56:50;2.20;99.90
29341;DHT22;16337;59.536;13.468;2024-01-30T14:59:16;2.20;99.90
29341;DHT22;16337;59.536;13.468;2024-01-30T15:01:42;2.20;99.90
29341;DHT22;16337;59.536;13.468;2024-01-30T15:10:44;2.20;99.90
29341;DHT22;16337;59.536;13.468;2024-01-30T15:13:09;2.20;99.90
29341;DHT22;16337;59.536;13.468;2024-01-30T15:15:36;2.20;99.90
29341;DHT22;16337;59.536;13.468;2024-01-30T15:18:02;2.20;99.90
29341;DHT22;16337;59.536;13.468;2024-01-30T15:20:28;2.20;99.90
29341;DHT22;16337;59.536;13.468;2024-01-30T15:22:53;2.20;99.90
29341;DHT22;16337;59.536;13.468;2024-01-30T15:25:19;2.20;99.90
29341;DHT22;16337;59.536;13.468;2024-01-30T15:27:45;2.20;99.90
29341;DHT22;16337;59.536;13.468;2024-01-30T15:30:12;2.30;99.90
29341;DHT22;16337;59.536;13.468;2024-01-30T15:32:38;2.20;99.90
29341;DHT22;16337;59.536;13.468;2024-01-30T15:35:04;2.20;99.90
29341;DHT22;16337;59.536;13.468;2024-01-30T15:37:32;2.20;99.90
29341;DHT22;16337;59.536;13.468;2024-01-30T15:39:57;2.20;99.90
29341;DHT22;16337;59.536;13.468;2024-01-30T15:42:23;2.20;99.90